Time;durP1;ratioP1;P1;durP2;ratioP2;P2;SDS_P1;SDS_P2;PMS_P1;PMS_P2;Temp;Humidity;BMP_temperature;BMP_pressure;BME280_temperature;BME280_humidity;BME280_pressure;Samples;Min_cycle;Max_cycle;Signal;HPM_P1;HPM_P2
2023/12/13 00:02:07;;;;;;;16.98;8.30;;;;;;;4.84;100.00;99938.78;4966137;28;20038;-71
2023/12/13 00:04:33;;;;;;;16.27;8.30;;;;;;;4.86;100.00;99934.00;4964146;28;20035;-73
2023/12/13 00:06:58;;;;;;;16.23;8.07;;;;;;;4.86;100.00;99934.00;4967901;28;20083;-72
2023/12/13 00:09:24;;;;;;;16.58;8.60;;;;;;;4.81;100.00;99937.44;4958453;28;20112;-71
2023/12/13 00:11:49;;;;;;;16.38;8.52;;;;;;;4.81;100.00;99934.78;4965179;28;20035;-71
2023/12/13 00:14:17;;;;;;;16.23;7.95;;;;;;;4.80;100.00;99930.50;4961886;28;20046;-72
2023/12/13 00:16:43;;;;;;;17.60;8.52;;;;;;;4.84;100.00;99923.66;4964535;28;20037;-72
2023/12/13 00:19:09;;;;;;;16.30;8.45;;;;;;;4.79;100.00;99922.78;4966381;28;20039;-71
2023/12/13 00:21:35;;;;;;;17.00;8.68;;;;;;;4.80;100.00;99922.53;4966490;28;20070;-70
2023/12/13 00:24:01;;;;;;;19.60;8.85;;;;;;;4.81;100.00;99924.16;4962293;28;20026;-71
2023/12/13 00:26:28;;;;;;;17.83;8.60;;;;;;;4.80;100.00;99908.47;4962362;28;20031;-71
2023/12/13 00:28:53;;;;;;;15.57;8.10;;;;;;;4.78;100.00;99905.28;4963345;28;20105;-71
2023/12/13 00:31:19;;;;;;;17.92;8.50;;;;;;;4.74;100.00;99901.50;4971692;28;20572;-70
2023/12/13 00:33:45;;;;;;;16.50;8.55;;;;;;;4.75;100.00;99897.84;4967694;28;20031;-70
2023/12/13 00:36:10;;;;;;;14.95;7.82;;;;;;;4.76;100.00;99899.44;4965298;28;20045;-71
2023/12/13 00:38:36;;;;;;;17.67;8.32;;;;;;;4.74;100.00;99890.91;4942824;28;20039;-71
2023/12/13 00:41:04;;;;;;;16.00;8.13;;;;;;;4.75;100.00;99887.22;4964151;28;20500;-71
2023/12/13 00:43:30;;;;;;;13.45;7.78;;;;;;;4.74;100.00;99886.44;4960097;28;20027;-70
2023/12/13 00:45:56;;;;;;;19.38;7.80;;;;;;;4.74;100.00;99893.56;4963063;28;20396;-71
2023/12/13 00:48:22;;;;;;;14.90;8.10;;;;;;;4.76;100.00;99880.88;4947234;28;20031;-70
2023/12/13 00:50:48;;;;;;;13.13;7.43;;;;;;;4.72;100.00;99883.22;4930143;28;20054;-70
2023/12/13 00:53:13;;;;;;;14.20;7.47;;;;;;;4.75;100.00;99879.28;4962484;28;20497;-71
2023/12/13 00:55:39;;;;;;;13.43;7.28;;;;;;;4.73;100.00;99881.34;4959692;28;20038;-73
2023/12/13 00:58:05;;;;;;;13.55;7.50;;;;;;;4.74;100.00;99875.00;4960088;28;20555;-73
2023/12/13 01:00:31;;;;;;;15.30;7.50;;;;;;;4.73;100.00;99870.75;4946987;28;20047;-73
2023/12/13 01:02:56;;;;;;;15.07;7.63;;;;;;;4.69;100.00;99872.31;4948442;28;20114;-72
2023/12/13 01:05:22;;;;;;;12.55;6.82;;;;;;;4.71;100.00;99867.56;4962224;28;20043;-72
2023/12/13 01:07:49;;;;;;;13.90;7.57;;;;;;;4.70;100.00;99873.91;4964147;28;20035;-72
2023/12/13 01:10:15;;;;;;;12.88;6.53;;;;;;;4.68;100.00;99870.72;4947523;28;20452;-72
2023/12/13 01:12:44;;;;;;;12.55;7.13;;;;;;;4.70;100.00;99868.59;4948292;28;20086;-72
2023/12/13 01:15:10;;;;;;;11.68;6.07;;;;;;;4.65;100.00;99875.47;4947968;28;20074;-73
2023/12/13 01:17:36;;;;;;;13.02;7.00;;;;;;;4.68;100.00;99876.81;4944496;28;20062;-72
2023/12/13 01:20:02;;;;;;;12.13;6.43;;;;;;;4.65;100.00;99875.47;4961512;28;20031;-72
2023/12/13 01:22:28;;;;;;;12.18;6.35;;;;;;;4.66;100.00;99874.41;4939402;28;20146;-72
2023/12/13 01:24:54;;;;;;;11.98;6.20;;;;;;;4.64;100.00;99873.84;4970720;28;20049;-72
2023/12/13 01:27:20;;;;;;;12.27;8.20;;;;;;;4.62;100.00;99873.31;4971429;22;20084;-73
2023/12/13 01:29:47;;;;;;;11.63;6.65;;;;;;;4.65;100.00;99872.00;4978524;28;20034;-73
2023/12/13 01:32:13;;;;;;;11.73;6.35;;;;;;;4.64;100.00;99870.41;4978138;28;20053;-72
2023/12/13 01:34:39;;;;;;;13.13;6.88;;;;;;;4.64;100.00;99886.31;4961865;28;20061;-72
2023/12/13 01:37:04;;;;;;;10.60;6.00;;;;;;;4.64;100.00;99876.50;4965634;28;20129;-72
2023/12/13 01:39:30;;;;;;;14.43;7.05;;;;;;;4.63;100.00;99874.13;4978595;28;20915;-72
2023/12/13 01:41:57;;;;;;;11.90;6.10;;;;;;;4.64;100.00;99879.16;4964643;28;20042;-72
2023/12/13 01:44:23;;;;;;;11.77;6.65;;;;;;;4.65;100.00;99882.63;4976481;28;20071;-72
2023/12/13 01:46:50;;;;;;;10.60;5.85;;;;;;;4.63;100.00;99872.25;4980118;28;20364;-72
2023/12/13 01:49:16;;;;;;;12.55;6.32;;;;;;;4.62;100.00;99872.53;4961655;28;20042;-72
2023/12/13 01:51:43;;;;;;;11.52;6.28;;;;;;;4.58;100.00;99861.59;4977227;28;20074;-72
2023/12/13 01:54:12;;;;;;;10.57;6.03;;;;;;;4.60;100.00;99864.78;4977018;28;20040;-72
2023/12/13 01:56:41;;;;;;;10.55;6.18;;;;;;;4.58;100.00;99856.28;4980555;28;20112;-72
2023/12/13 01:59:07;;;;;;;9.38;5.55;;;;;;;4.57;100.00;99854.69;4941364;28;20038;-73
2023/12/13 02:01:33;;;;;;;12.68;6.30;;;;;;;4.57;100.00;99844.09;4974991;28;20042;-72
2023/12/13 02:03:59;;;;;;;10.70;6.00;;;;;;;4.58;100.00;99844.91;4960045;28;20179;-72
2023/12/13 02:06:25;;;;;;;9.07;5.32;;;;;;;4.56;100.00;99839.84;4981222;28;20148;-73
2023/12/13 02:08:52;;;;;;;9.63;4.93;;;;;;;4.56;100.00;99839.84;4989171;28;20563;-72
2023/12/13 02:11:17;;;;;;;9.07;5.15;;;;;;;4.56;100.00;99825.78;4959991;28;20038;-72
2023/12/13 02:13:43;;;;;;;7.70;5.13;;;;;;;4.52;100.00;99825.47;4971847;28;20030;-73
2023/12/13 02:16:09;;;;;;;7.07;4.43;;;;;;;4.54;100.00;99819.91;4976788;28;20038;-73
2023/12/13 02:18:35;;;;;;;8.30;5.13;;;;;;;4.53;100.00;99821.78;4959633;28;20049;-74
2023/12/13 02:21:00;;;;;;;7.32;4.63;;;;;;;4.53;100.00;99832.38;4974151;28;20041;-73
2023/12/13 02:23:26;;;;;;;7.55;4.15;;;;;;;4.51;100.00;99829.19;4976150;28;20031;-72
2023/12/13 02:25:56;;;;;;;7.38;4.75;;;;;;;4.52;100.00;99825.47;4973577;28;20042;-72
2023/12/13 02:28:28;;;;;;;7.60;4.32;;;;;;;4.50;100.00;99838.19;4977807;28;20404;-72
2023/12/13 02:30:59;;;;;;;6.28;3.30;;;;;;;4.50;100.00;99843.50;4978245;28;20042;-72
2023/12/13 02:33:26;;;;;;;5.57;3.08;;;;;;;4.48;100.00;99842.16;4944185;28;20057;-72
2023/12/13 02:35:53;;;;;;;5.32;3.13;;;;;;;4.45;100.00;99856.69;4978245;28;20038;-72
2023/12/13 02:38:19;;;;;;;5.40;2.78;;;;;;;4.47;100.00;99854.63;4981508;28;20035;-74
2023/12/13 02:40:44;;;;;;;6.25;3.40;;;;;;;4.43;100.00;99848.22;4965560;28;20057;-72
2023/12/13 02:43:10;;;;;;;4.57;3.15;;;;;;;4.45;100.00;99850.59;4963481;28;20089;-72
2023/12/13 02:45:35;;;;;;;6.57;4.03;;;;;;;4.47;100.00;99846.66;4979451;28;20038;-72
2023/12/13 02:48:01;;;;;;;5.35;3.17;;;;;;;4.44;100.00;99855.09;4961203;28;20100;-73
2023/12/13 02:50:27;;;;;;;5.78;3.15;;;;;;;4.40;100.00;99846.03;4978075;28;20043;-72
2023/12/13 02:52:52;;;;;;;5.55;3.30;;;;;;;4.43;100.00;99852.72;4978966;28;20030;-72
2023/12/13 02:55:18;;;;;;;5.20;3.50;;;;;;;4.42;100.00;99857.22;4979036;28;21084;-72
2023/12/13 02:57:44;;;;;;;5.10;3.47;;;;;;;4.43;100.00;99852.72;4980432;28;20117;-72
2023/12/13 03:00:11;;;;;;;5.90;4.13;;;;;;;4.42;100.00;99851.91;4980436;28;20048;-72
2023/12/13 03:02:39;;;;;;;4.60;3.28;;;;;;;4.43;100.00;99850.84;4965347;28;20852;-72
2023/12/13 03:05:05;;;;;;;5.20;3.33;;;;;;;4.43;100.00;99853.50;4981160;28;20098;-72
2023/12/13 03:07:31;;;;;;;5.30;3.30;;;;;;;4.42;100.00;99851.91;4976872;28;20046;-72
2023/12/13 03:09:56;;;;;;;6.45;3.80;;;;;;;4.40;100.00;99843.38;4976028;28;20042;-72
2023/12/13 03:12:22;;;;;;;5.10;3.10;;;;;;;4.43;100.00;99844.75;4971642;28;20039;-73
2023/12/13 03:14:48;;;;;;;6.32;3.97;;;;;;;4.37;100.00;99846.56;4987370;28;20059;-70
2023/12/13 03:17:13;;;;;;;5.25;3.30;;;;;;;4.39;100.00;99839.16;4978521;28;20042;-73
2023/12/13 03:19:39;;;;;;;5.07;3.20;;;;;;;4.40;100.00;99848.69;4972516;28;20045;-73
2023/12/13 03:22:06;;;;;;;5.72;3.10;;;;;;;4.39;100.00;99839.94;4982004;28;20081;-73
2023/12/13 03:24:31;;;;;;;;;;;;;;;4.39;100.00;99836.50;4983061;28;20042;-71
2023/12/13 03:26:57;;;;;;;6.07;2.88;;;;;;;4.39;100.00;99839.16;4980322;28;19928;-71
2023/12/13 03:29:23;;;;;;;4.78;3.00;;;;;;;4.38;100.00;99834.91;4984463;28;20040;-71
2023/12/13 03:31:49;;;;;;;4.47;3.20;;;;;;;4.38;100.00;99829.59;4985906;28;20066;-73
2023/12/13 03:34:14;;;;;;;5.00;2.92;;;;;;;4.36;100.00;99837.81;4977517;28;20062;-72
2023/12/13 03:36:40;;;;;;;4.93;3.00;;;;;;;4.38;100.00;99834.91;4962822;28;20073;-73
2023/12/13 03:39:07;;;;;;;4.97;3.08;;;;;;;4.36;100.00;99842.31;4965667;28;20074;-73
2023/12/13 03:41:34;;;;;;;4.07;2.65;;;;;;;4.36;100.00;99843.09;4948862;28;20030;-72
2023/12/13 03:44:00;;;;;;;3.78;2.70;;;;;;;4.34;100.00;99839.91;4985434;28;20038;-72
2023/12/13 03:46:26;;;;;;;5.13;2.88;;;;;;;4.35;100.00;99830.09;4990425;28;20034;-72
2023/12/13 03:48:52;;;;;;;4.53;3.10;;;;;;;4.34;100.00;99824.00;4983078;28;20564;-71
2023/12/13 03:51:18;;;;;;;5.03;2.50;;;;;;;4.33;100.00;99822.38;4981990;28;20480;-72
2023/12/13 03:53:44;;;;;;;4.13;2.80;;;;;;;4.32;100.00;99833.25;4983996;28;20046;-73
2023/12/13 03:56:10;;;;;;;4.13;2.65;;;;;;;4.30;100.00;99830.84;4980308;28;20065;-74
2023/12/13 03:58:36;;;;;;;3.65;2.30;;;;;;;4.33;100.00;99829.53;4982513;28;20038;-73
2023/12/13 04:01:02;;;;;;;3.63;2.40;;;;;;;4.32;100.00;99826.09;4981140;28;20042;-73
2023/12/13 04:03:28;;;;;;;3.75;2.42;;;;;;;4.29;100.00;99825.81;4981951;28;20038;-73
2023/12/13 04:05:54;;;;;;;4.95;2.63;;;;;;;4.28;100.00;99832.16;4973913;28;20137;-73
2023/12/13 04:08:20;;;;;;;3.67;2.17;;;;;;;4.24;100.00;99823.09;4983372;28;20038;-73
2023/12/13 04:10:45;;;;;;;2.80;2.10;;;;;;;4.24;100.00;99820.44;4948572;28;20042;-73
2023/12/13 04:13:11;;;;;;;3.03;2.05;;;;;;;4.22;100.00;99827.84;4978734;28;20043;-73
2023/12/13 04:15:37;;;;;;;4.53;2.65;;;;;;;4.24;100.00;99823.91;4985478;28;20044;-73
2023/12/13 04:18:03;;;;;;;;;;;;;;;4.21;100.00;99818.31;4981233;28;20125;-73
2023/12/13 04:20:29;;;;;;;3.65;2.10;;;;;;;4.21;100.00;99819.09;4961192;28;20642;-73
2023/12/13 04:22:55;;;;;;;4.03;2.35;;;;;;;4.18;100.00;99814.28;4947143;28;20034;-73
2023/12/13 04:25:21;;;;;;;3.72;2.35;;;;;;;4.21;100.00;99807.72;4981463;28;20049;-75
2023/12/13 04:27:47;;;;;;;;;;;;;;;4.19;100.00;99817.75;4984659;28;20027;-73
2023/12/13 04:30:16;;;;;;;3.38;2.60;;;;;;;4.18;100.00;99813.50;4983469;28;19917;-73
2023/12/13 04:32:42;;;;;;;4.13;2.42;;;;;;;4.17;100.00;99810.03;4984949;28;20683;-73
2023/12/13 04:35:08;;;;;;;3.85;2.42;;;;;;;4.16;100.00;99820.91;4954522;28;20048;-72
2023/12/13 04:37:35;;;;;;;4.97;2.45;;;;;;;4.13;100.00;99813.44;4985926;28;20077;-72
2023/12/13 04:40:01;;;;;;;;;;;;;;;4.14;100.00;99823.81;4988305;28;20593;-72
2023/12/13 04:42:27;;;;;;;4.30;2.85;;;;;;;4.10;100.00;99818.19;4995606;28;19914;-73
2023/12/13 04:44:53;;;;;;;4.47;3.30;;;;;;;4.11;100.00;99825.09;4979558;28;20034;-73
2023/12/13 04:47:19;;;;;;;4.30;2.80;;;;;;;4.12;100.00;99820.59;4985131;28;20036;-72
2023/12/13 04:49:45;;;;;;;5.15;3.10;;;;;;;4.11;100.00;99819.78;4969089;28;20030;-72
2023/12/13 04:52:11;;;;;;;5.43;3.03;;;;;;;4.13;100.00;99810.78;4982686;28;20073;-71
2023/12/13 04:54:37;;;;;;;5.47;3.22;;;;;;;4.09;100.00;99811.28;4982877;28;20521;-72
2023/12/13 04:57:04;;;;;;;4.60;3.20;;;;;;;4.06;100.00;99809.16;4985995;28;20492;-72
2023/12/13 04:59:30;;;;;;;4.32;3.10;;;;;;;4.07;100.00;99812.59;4980285;28;20560;-72
2023/12/13 05:01:56;;;;;;;6.15;3.50;;;;;;;4.08;100.00;99814.19;4968203;28;20097;-73
2023/12/13 05:04:22;;;;;;;4.80;2.75;;;;;;;4.09;100.00;99818.44;4980043;28;20641;-74
2023/12/13 05:06:48;;;;;;;5.38;3.70;;;;;;;4.09;100.00;99826.41;4982993;28;20638;-72
2023/12/13 05:09:13;;;;;;;6.07;3.40;;;;;;;4.08;100.00;99822.16;4965910;28;20034;-74
2023/12/13 05:11:39;;;;;;;5.63;3.20;;;;;;;4.09;100.00;99821.91;4979159;28;20069;-72
2023/12/13 05:14:05;;;;;;;5.78;3.53;;;;;;;4.09;100.00;99813.94;4976785;28;20034;-73
2023/12/13 05:16:30;;;;;;;5.38;3.40;;;;;;;4.09;100.00;99815.78;4979147;28;20045;-72
2023/12/13 05:18:56;;;;;;;5.68;4.03;;;;;;;4.09;100.00;99819.25;4959711;28;20088;-72
2023/12/13 05:21:22;;;;;;;5.43;3.30;;;;;;;4.08;100.00;99820.28;4979772;28;20030;-73
2023/12/13 05:23:48;;;;;;;6.25;3.92;;;;;;;4.10;100.00;99818.19;4965258;28;20484;-72
2023/12/13 05:26:13;;;;;;;5.43;3.17;;;;;;;4.10;100.00;99818.19;4969244;28;20046;-72
2023/12/13 05:28:39;;;;;;;6.82;4.07;;;;;;;4.12;100.00;99825.88;4968928;28;20045;-73
2023/12/13 05:31:05;;;;;;;7.05;4.10;;;;;;;4.09;100.00;99821.09;4981842;28;20030;-73
2023/12/13 05:33:31;;;;;;;6.18;3.80;;;;;;;4.13;100.00;99826.69;4984188;28;20042;-72
2023/12/13 05:35:56;;;;;;;7.60;4.30;;;;;;;4.13;100.00;99821.38;4980103;28;20038;-72
2023/12/13 05:38:23;;;;;;;7.75;4.35;;;;;;;4.13;100.00;99826.69;4950071;28;20081;-73
2023/12/13 05:40:49;;;;;;;7.95;4.78;;;;;;;4.12;100.00;99823.22;4965903;28;20521;-72
2023/12/13 05:43:15;;;;;;;6.95;4.38;;;;;;;4.13;100.00;99837.28;4981406;28;20041;-74
2023/12/13 05:45:41;;;;;;;7.63;4.38;;;;;;;4.07;100.00;99837.25;4966391;28;20038;-74
2023/12/13 05:48:07;;;;;;;7.20;4.70;;;;;;;4.10;100.00;99839.38;5001045;28;20045;-73
2023/12/13 05:50:32;;;;;;;7.43;4.50;;;;;;;4.10;100.00;99844.69;4986154;28;20023;-73
2023/12/13 05:52:58;;;;;;;9.48;5.00;;;;;;;4.13;100.00;99843.38;4966338;28;20046;-72
2023/12/13 05:55:25;;;;;;;8.15;5.00;;;;;;;4.15;100.00;99848.44;4979334;28;20493;-72
2023/12/13 05:57:52;;;;;;;9.02;4.55;;;;;;;4.16;100.00;99852.69;4978977;28;20050;-73
2023/12/13 06:00:17;;;;;;;8.48;5.15;;;;;;;4.17;100.00;99851.66;4963156;28;20042;-73
2023/12/13 06:02:43;;;;;;;6.88;4.35;;;;;;;4.15;100.00;99856.41;4981478;28;20061;-73
2023/12/13 06:05:08;;;;;;;9.85;4.50;;;;;;;4.16;100.00;99853.50;4976056;28;20033;-74
2023/12/13 06:07:34;;;;;;;8.07;5.25;;;;;;;4.15;100.00;99841.31;4981214;28;20034;-72
2023/12/13 06:10:00;;;;;;;9.15;5.35;;;;;;;4.13;100.00;99851.31;4981284;28;20037;-71
2023/12/13 06:12:25;;;;;;;8.75;5.32;;;;;;;4.11;100.00;99845.47;4963226;28;20045;-72
2023/12/13 06:14:51;;;;;;;9.40;5.05;;;;;;;4.11;100.00;99845.47;4963586;28;20615;-72
2023/12/13 06:17:16;;;;;;;9.48;5.10;;;;;;;4.11;100.00;99843.63;4975159;28;20077;-73
2023/12/13 06:19:42;;;;;;;9.35;5.30;;;;;;;4.13;100.00;99831.97;4961901;28;20041;-72
2023/12/13 06:22:10;;;;;;;8.57;4.90;;;;;;;4.15;100.00;99843.16;4977160;28;20092;-73
2023/12/13 06:24:35;;;;;;;10.52;5.10;;;;;;;4.10;100.00;99844.69;4975656;28;20030;-72
2023/12/13 06:27:02;;;;;;;8.80;5.32;;;;;;;4.08;100.00;99836.19;4964498;28;20068;-75
2023/12/13 06:29:28;;;;;;;10.07;5.40;;;;;;;4.06;100.00;99838.31;4994909;28;20043;-72
2023/12/13 06:31:53;;;;;;;9.02;5.63;;;;;;;4.06;100.00;99843.59;4947175;28;20041;-73
2023/12/13 06:34:19;;;;;;;9.18;5.40;;;;;;;4.06;100.00;99833.00;4964749;28;20099;-72
2023/12/13 06:36:45;;;;;;;10.77;5.70;;;;;;;4.03;100.00;99832.69;4978621;28;20042;-72
2023/12/13 06:39:11;;;;;;;9.07;4.80;;;;;;;4.01;100.00;99840.88;4980907;28;20066;-72
2023/12/13 06:41:39;;;;;;;8.30;4.60;;;;;;;4.03;100.00;99848.59;4982913;28;20042;-73
2023/12/13 06:44:05;;;;;;;10.20;5.68;;;;;;;4.02;100.00;99842.50;4965659;28;20186;-73
2023/12/13 06:46:31;;;;;;;9.18;4.97;;;;;;;4.01;100.00;99840.88;4982456;28;20048;-74
2023/12/13 06:48:57;;;;;;;10.65;5.72;;;;;;;3.99;100.00;99842.16;4962697;28;20488;-73
2023/12/13 06:51:22;;;;;;;10.27;5.60;;;;;;;4.01;100.00;99846.19;4980952;28;20490;-74
2023/12/13 06:53:50;;;;;;;12.10;5.68;;;;;;;3.99;100.00;99848.25;4996798;28;20112;-73
2023/12/13 06:56:15;;;;;;;12.82;5.38;;;;;;;4.02;100.00;99853.09;4964202;28;20098;-73
2023/12/13 06:58:41;;;;;;;13.30;6.00;;;;;;;4.02;100.00;99853.09;4982485;28;20508;-74
2023/12/13 07:01:08;;;;;;;11.18;5.28;;;;;;;4.03;100.00;99849.38;4981997;28;20030;-72
2023/12/13 07:03:34;;;;;;;11.10;5.45;;;;;;;4.02;100.00;99850.44;4976696;28;20066;-72
2023/12/13 07:06:03;;;;;;;10.55;5.63;;;;;;;3.98;100.00;99857.25;4980010;28;20096;-73
2023/12/13 07:08:29;;;;;;;10.10;5.40;;;;;;;3.97;100.00;99862.81;4962513;28;20121;-74
2023/12/13 07:10:54;;;;;;;9.88;5.63;;;;;;;3.98;100.00;99856.47;4968583;28;20153;-73
2023/12/13 07:13:20;;;;;;;10.05;5.30;;;;;;;3.95;100.00;99852.47;4948577;28;20508;-73
2023/12/13 07:15:46;;;;;;;9.95;4.88;;;;;;;3.97;100.00;99855.66;4982137;28;20049;-73
2023/12/13 07:18:13;;;;;;;12.75;5.57;;;;;;;3.99;100.00;99858.84;4981716;28;20081;-73
2023/12/13 07:20:38;;;;;;;9.25;5.20;;;;;;;3.97;100.00;99855.66;4969674;28;20120;-73
2023/12/13 07:23:05;;;;;;;8.95;5.13;;;;;;;3.96;100.00;99862.00;4983679;28;20096;-73
2023/12/13 07:25:32;;;;;;;8.32;4.78;;;;;;;3.95;100.00;99868.38;4982876;28;20736;-74
2023/12/13 07:27:58;;;;;;;9.98;5.50;;;;;;;3.99;100.00;99869.47;4982092;28;20080;-75
2023/12/13 07:30:23;;;;;;;9.93;4.90;;;;;;;3.96;100.00;99875.25;4984456;28;20832;-73
2023/12/13 07:32:50;;;;;;;9.10;5.28;;;;;;;3.96;100.00;99869.97;4985151;28;20106;-73
2023/12/13 07:35:16;;;;;;;;;;;;;;;3.97;100.00;99881.34;4970624;28;20042;-73
2023/12/13 07:37:42;;;;;;;9.27;5.28;;;;;;;3.96;100.00;99875.25;4982520;28;19918;-73
2023/12/13 07:40:08;;;;;;;9.85;4.93;;;;;;;3.96;100.00;99875.25;4969768;28;21223;-74
2023/12/13 07:42:34;;;;;;;11.00;5.25;;;;;;;3.99;100.00;99885.34;4971428;28;20038;-73
2023/12/13 07:45:00;;;;;;;10.52;5.95;;;;;;;3.98;100.00;99877.66;4952520;28;20035;-74
2023/12/13 07:47:26;;;;;;;8.70;4.97;;;;;;;3.98;100.00;99883.75;4982522;28;20058;-72
2023/12/13 07:49:53;;;;;;;8.82;5.65;;;;;;;3.97;100.00;99892.75;4982089;28;20042;-73
2023/12/13 07:52:19;;;;;;;11.00;5.90;;;;;;;3.96;100.00;99896.47;4986694;28;20030;-73
2023/12/13 07:54:45;;;;;;;11.50;5.13;;;;;;;3.96;100.00;99895.66;4964573;28;20191;-73
2023/12/13 07:57:11;;;;;;;11.25;5.63;;;;;;;3.94;100.00;99903.84;4967604;28;20069;-74
2023/12/13 07:59:37;;;;;;;10.75;5.50;;;;;;;3.97;100.00;99897.25;4984519;28;20050;-72
2023/12/13 08:02:04;;;;;;;8.57;5.05;;;;;;;3.97;100.00;99905.19;4984518;28;20065;-73
2023/12/13 08:04:30;;;;;;;8.73;5.38;;;;;;;3.95;100.00;99902.81;4964888;28;20037;-73
2023/12/13 08:06:56;;;;;;;9.25;5.85;;;;;;;3.94;100.00;99903.06;4983074;28;20034;-72
2023/12/13 08:09:21;;;;;;;10.05;5.63;;;;;;;3.95;100.00;99905.47;4985702;28;20038;-73
2023/12/13 08:11:47;;;;;;;9.88;5.60;;;;;;;3.95;100.00;99905.47;4970173;28;20061;-73
2023/12/13 08:14:16;;;;;;;8.45;5.50;;;;;;;3.96;100.00;99903.59;4965890;28;20157;-73
2023/12/13 08:16:42;;;;;;;10.23;5.40;;;;;;;3.94;100.00;99903.06;4981644;28;20030;-72
2023/12/13 08:19:08;;;;;;;8.05;5.32;;;;;;;3.94;100.00;99895.91;4982555;28;20034;-73
2023/12/13 08:21:40;;;;;;;8.70;4.90;;;;;;;3.95;100.00;99905.47;4983638;28;20038;-72
2023/12/13 08:24:12;;;;;;;9.07;5.63;;;;;;;3.95;100.00;99902.00;4983456;28;20030;-73
2023/12/13 08:26:38;;;;;;;8.43;4.68;;;;;;;3.95;100.00;99905.47;4968650;28;20026;-73
2023/12/13 08:29:04;;;;;;;10.25;5.85;;;;;;;3.96;100.00;99900.97;4980696;28;20034;-72
2023/12/13 08:31:31;;;;;;;8.73;4.85;;;;;;;3.97;100.00;99906.00;4989107;28;20038;-71
2023/12/13 08:33:57;;;;;;;8.02;4.97;;;;;;;3.95;100.00;99910.75;4981094;28;20117;-72
2023/12/13 08:36:22;;;;;;;9.02;5.03;;;;;;;3.96;100.00;99904.41;4967800;28;20130;-72
2023/12/13 08:38:48;;;;;;;8.93;5.10;;;;;;;3.93;100.00;99898.78;4985436;28;20038;-72
2023/12/13 08:41:14;;;;;;;9.27;5.05;;;;;;;3.94;100.00;99914.44;4984220;28;20029;-72
2023/12/13 08:43:40;;;;;;;;;;;;;;;3.96;100.00;99915.00;4979709;28;20065;-73
2023/12/13 08:46:07;;;;;;;9.75;4.90;;;;;;;3.97;100.00;99913.16;4982930;28;20398;-73
2023/12/13 08:48:33;;;;;;;8.23;5.20;;;;;;;3.96;100.00;99917.66;4984915;28;20030;-73
2023/12/13 08:50:59;;;;;;;5.68;4.35;;;;;;;3.97;100.00;99915.81;4968027;28;20038;-72
2023/12/13 08:53:25;;;;;;;7.88;4.75;;;;;;;3.94;100.00;99914.44;4982379;28;20034;-72
2023/12/13 08:55:51;;;;;;;7.78;4.53;;;;;;;3.94;100.00;99917.09;4984244;28;20433;-72
2023/12/13 08:58:17;;;;;;;8.93;4.80;;;;;;;3.93;100.00;99923.44;4978089;28;20576;-72
2023/12/13 09:00:42;;;;;;;8.25;4.78;;;;;;;3.93;100.00;99918.16;4974505;28;20114;-72
2023/12/13 09:03:08;;;;;;;7.95;5.15;;;;;;;3.97;100.00;99924.53;4994298;28;20030;-71
2023/12/13 09:05:35;;;;;;;8.38;5.30;;;;;;;3.98;100.00;99926.16;4978668;28;20678;-73
2023/12/13 09:08:01;;;;;;;8.68;4.53;;;;;;;3.98;100.00;99922.69;4953929;28;20034;-73
2023/12/13 09:10:26;;;;;;;9.25;4.72;;;;;;;3.96;100.00;99928.25;4985645;28;20038;-72
2023/12/13 09:12:53;;;;;;;6.55;4.18;;;;;;;3.96;100.00;99933.53;4968943;28;20034;-74
2023/12/13 09:15:18;;;;;;;7.72;4.43;;;;;;;4.00;100.00;99929.38;4968315;28;20089;-74
2023/12/13 09:17:47;;;;;;;7.18;4.50;;;;;;;3.97;100.00;99929.84;4966396;28;20042;-73
2023/12/13 09:20:16;;;;;;;7.60;4.93;;;;;;;3.99;100.00;99935.69;4979614;28;20049;-73
2023/12/13 09:22:45;;;;;;;7.40;4.30;;;;;;;3.94;100.00;99930.34;4966214;28;20065;-73
2023/12/13 09:25:16;;;;;;;9.65;5.15;;;;;;;3.97;100.00;99935.16;4963937;28;20034;-73
2023/12/13 09:27:46;;;;;;;6.90;4.65;;;;;;;4.00;100.00;99939.97;4981368;28;20100;-73
2023/12/13 09:30:13;;;;;;;8.73;4.25;;;;;;;4.00;100.00;99937.31;4983655;28;20064;-73
2023/12/13 09:32:42;;;;;;;;;;;;;;;3.99;100.00;99951.59;4981354;28;20125;-73
2023/12/13 09:35:09;;;;;;;9.10;4.88;;;;;;;4.00;100.00;99952.41;4965535;28;20004;-73
2023/12/13 09:37:34;;;;;;;9.77;4.72;;;;;;;3.98;100.00;99952.63;4978902;28;20030;-72
2023/12/13 09:39:59;;;;;;;8.70;4.70;;;;;;;3.97;100.00;99945.75;4963913;28;20088;-71
2023/12/13 09:42:26;;;;;;;9.13;5.18;;;;;;;4.01;100.00;99954.81;4958438;28;20411;-72
2023/12/13 09:44:52;;;;;;;8.70;3.97;;;;;;;4.01;100.00;99957.47;4984032;28;20034;-72
2023/12/13 09:47:21;;;;;;;8.32;4.75;;;;;;;4.01;100.00;99956.66;4978971;28;20169;-73
2023/12/13 09:49:49;;;;;;;6.72;3.97;;;;;;;3.99;100.00;99948.94;4981169;28;20596;-73
2023/12/13 09:52:18;;;;;;;9.27;4.07;;;;;;;3.96;100.00;99957.38;4978226;28;20093;-73
2023/12/13 09:54:46;;;;;;;6.88;3.90;;;;;;;3.96;100.00;99965.34;4967540;28;20060;-73
2023/12/13 09:57:12;;;;;;;7.18;4.32;;;;;;;3.99;100.00;99962.19;4965730;28;20440;-73
2023/12/13 09:59:39;;;;;;;6.68;4.20;;;;;;;4.00;100.00;99966.47;4963823;28;20662;-72
2023/12/13 10:02:11;;;;;;;7.88;4.50;;;;;;;4.02;100.00;99959.06;4978099;28;20042;-73
2023/12/13 10:04:38;;;;;;;9.40;4.25;;;;;;;4.01;100.00;99961.97;4979662;28;20047;-72
2023/12/13 10:07:10;;;;;;;9.07;4.50;;;;;;;4.03;100.00;99971.25;4978365;28;20038;-73
2023/12/13 10:09:36;;;;;;;6.03;4.10;;;;;;;4.04;100.00;99972.84;4981790;28;20672;-71
2023/12/13 10:12:04;;;;;;;6.07;4.05;;;;;;;4.04;100.00;99972.84;4984297;28;20049;-73
2023/12/13 10:14:34;;;;;;;7.18;3.80;;;;;;;4.06;100.00;99964.66;4980681;28;20058;-73
2023/12/13 10:17:00;;;;;;;9.68;4.45;;;;;;;4.05;100.00;99971.00;4965961;28;20037;-72
2023/12/13 10:19:26;;;;;;;8.82;4.20;;;;;;;4.05;100.00;99963.84;4978247;28;20035;-73
2023/12/13 10:21:52;;;;;;;6.85;3.53;;;;;;;4.03;100.00;99970.47;4976375;28;20480;-73
2023/12/13 10:24:20;;;;;;;6.03;3.72;;;;;;;4.05;100.00;99974.47;4964333;28;20116;-74
2023/12/13 10:26:46;;;;;;;7.43;3.60;;;;;;;4.04;100.00;99978.16;4986717;28;20030;-73
2023/12/13 10:29:12;;;;;;;5.80;3.67;;;;;;;4.05;100.00;99976.31;4984384;28;20044;-73
2023/12/13 10:31:37;;;;;;;5.95;3.42;;;;;;;4.02;100.00;99980.25;4971178;28;20205;-72
2023/12/13 10:34:03;;;;;;;6.40;3.78;;;;;;;4.03;100.00;99973.91;4967389;28;20058;-73
2023/12/13 10:36:32;;;;;;;5.90;3.40;;;;;;;3.99;100.00;99986.03;4982446;28;20046;-73
2023/12/13 10:39:00;;;;;;;6.05;3.45;;;;;;;3.99;100.00;99980.72;4982161;28;20511;-72
2023/12/13 10:41:27;;;;;;;6.07;3.30;;;;;;;4.01;100.00;99978.66;4987611;28;20038;-73
2023/12/13 10:43:55;;;;;;;5.97;3.15;;;;;;;3.98;100.00;99971.19;4981683;28;20483;-75
2023/12/13 10:46:22;;;;;;;5.88;3.38;;;;;;;3.99;100.00;99975.44;4978168;28;20035;-72
2023/12/13 10:48:49;;;;;;;5.97;3.40;;;;;;;4.00;100.00;99976.25;4962369;28;20037;-71
2023/12/13 10:51:16;;;;;;;5.82;3.70;;;;;;;4.00;100.00;99981.56;4979309;28;20046;-72
2023/12/13 10:53:44;;;;;;;4.45;2.88;;;;;;;3.98;100.00;99978.34;4964275;28;20455;-73
2023/12/13 10:56:11;;;;;;;5.95;3.38;;;;;;;3.96;100.00;99975.94;4984621;28;20031;-72
2023/12/13 10:58:37;;;;;;;5.47;3.00;;;;;;;3.96;100.00;99975.13;4968661;28;20089;-72
2023/12/13 11:01:05;;;;;;;7.57;3.90;;;;;;;3.95;100.00;99979.63;4965853;28;20039;-74
2023/12/13 11:03:37;;;;;;;4.75;3.10;;;;;;;3.95;100.00;99979.63;4966330;28;20066;-73
2023/12/13 11:06:05;;;;;;;5.03;2.70;;;;;;;3.94;100.00;99983.34;4984082;28;20053;-72
2023/12/13 11:08:40;;;;;;;5.07;3.28;;;;;;;3.95;100.00;99981.47;4969346;28;20081;-72
2023/12/13 11:11:13;;;;;;;8.38;3.65;;;;;;;3.96;100.00;99981.22;4966554;28;20117;-73
2023/12/13 11:13:48;;;;;;;5.40;3.75;;;;;;;3.95;100.00;99976.97;4986433;28;20054;-73
2023/12/13 11:16:25;;;;;;;4.30;2.80;;;;;;;3.94;100.00;99991.28;4968854;28;20042;-72
2023/12/13 11:18:57;;;;;;;5.30;2.88;;;;;;;3.93;100.00;99991.50;4971118;28;20428;-73
2023/12/13 11:21:30;;;;;;;;;;;;;;;3.92;100.00;99990.69;4986445;28;20131;-73
2023/12/13 11:24:00;;;;;;;6.32;2.70;;;;;;;3.92;100.00;99996.00;4968349;28;19922;-73
2023/12/13 11:26:26;;;;;;;5.35;2.60;;;;;;;3.90;100.00;100000.75;4989243;28;20049;-73
2023/12/13 11:28:54;;;;;;;5.85;2.85;;;;;;;3.90;100.00;100002.59;4986288;28;20825;-73
2023/12/13 11:31:24;;;;;;;4.68;3.20;;;;;;;3.90;100.00;99997.28;4988555;28;20810;-73